UAE49K VOBL-OMDB
Flight info
| Callsign | UAE49K |
|---|---|
| Flight time | N/A |
| Altitude | 38000 |
| Route | GUNIM8A/09L GUNIM R461 OKILA P574 PAROK Q899 ITURA M762 VAXAS/N0418F240 M762 MIVEK P574 IMPED |
| Aircraft | B77W/H-SDE1E2E3FGHIJ2J3J4J5M1RWXY/LB1D1 |
Departure
| Time | N/A |
|---|---|
| Airport | Kempegowda International Airport Bengaluru (VOBL) |
Arrival
| Time | 2026-05-07 11:23 |
|---|---|
| Airport | Dubai International Airport (OMDB) |
| Time | Latitude | Longitude | Altitude | Speed | Heading |
|---|---|---|---|---|---|
| 2026-05-07 09:05 | 17.41219 | 71.38395 | 37821 ft | 474 kts | 296° |
| 2026-05-07 09:05 | 17.44169 | 71.32226 | 37828 ft | 473 kts | 296° |
| 2026-05-07 09:06 | 17.47114 | 71.26056 | 37827 ft | 473 kts | 296° |
| 2026-05-07 09:06 | 17.50036 | 71.19928 | 37828 ft | 473 kts | 296° |
| 2026-05-07 09:07 | 17.52975 | 71.13760 | 37825 ft | 472 kts | 296° |
| 2026-05-07 09:07 | 17.55906 | 71.07601 | 37828 ft | 472 kts | 296° |
| 2026-05-07 09:08 | 17.58836 | 71.01438 | 37828 ft | 472 kts | 296° |
| 2026-05-07 09:08 | 17.61765 | 70.95271 | 37828 ft | 472 kts | 296° |
| 2026-05-07 09:09 | 17.64689 | 70.89111 | 37827 ft | 472 kts | 296° |
| 2026-05-07 09:09 | 17.67615 | 70.82938 | 37828 ft | 472 kts | 296° |
| 2026-05-07 09:10 | 17.70521 | 70.76802 | 37828 ft | 472 kts | 296° |
| 2026-05-07 09:10 | 17.73443 | 70.70627 | 37828 ft | 472 kts | 296° |
| 2026-05-07 09:11 | 17.76360 | 70.64454 | 37828 ft | 472 kts | 296° |
| 2026-05-07 09:11 | 17.79274 | 70.58283 | 37824 ft | 472 kts | 296° |
| 2026-05-07 09:12 | 17.82185 | 70.52101 | 37824 ft | 472 kts | 296° |
| 2026-05-07 09:12 | 17.85088 | 70.45920 | 37830 ft | 472 kts | 296° |
| 2026-05-07 09:13 | 17.87987 | 70.39740 | 37826 ft | 471 kts | 296° |
| 2026-05-07 09:13 | 17.90867 | 70.33596 | 37825 ft | 471 kts | 295° |
| 2026-05-07 09:14 | 17.93761 | 70.27416 | 37826 ft | 472 kts | 295° |
| 2026-05-07 09:14 | 17.96655 | 70.21229 | 37830 ft | 472 kts | 295° |
| 2026-05-07 09:15 | 17.99544 | 70.15049 | 37832 ft | 472 kts | 295° |
| 2026-05-07 09:15 | 18.01951 | 70.09893 | 37829 ft | 472 kts | 295° |
| 2026-05-07 09:16 | 18.04840 | 70.03700 | 37830 ft | 472 kts | 295° |
| 2026-05-07 09:16 | 18.08196 | 69.96497 | 37831 ft | 472 kts | 296° |
| 2026-05-07 09:17 | 18.11081 | 69.90299 | 37835 ft | 472 kts | 296° |
| 2026-05-07 09:17 | 18.13483 | 69.85136 | 37837 ft | 472 kts | 295° |
| 2026-05-07 09:18 | 18.16367 | 69.78927 | 37838 ft | 472 kts | 295° |
| 2026-05-07 09:18 | 18.19251 | 69.72714 | 37839 ft | 472 kts | 295° |
| 2026-05-07 09:19 | 18.22133 | 69.66498 | 37842 ft | 473 kts | 295° |
| 2026-05-07 09:19 | 18.25009 | 69.60289 | 37837 ft | 473 kts | 295° |
| 2026-05-07 09:20 | 18.27889 | 69.54062 | 37838 ft | 473 kts | 295° |
| 2026-05-07 09:20 | 18.30768 | 69.47835 | 37840 ft | 473 kts | 295° |
| 2026-05-07 09:21 | 18.33626 | 69.41645 | 37840 ft | 473 kts | 295° |
| 2026-05-07 09:21 | 18.36497 | 69.35417 | 37843 ft | 473 kts | 295° |
| 2026-05-07 09:22 | 18.39375 | 69.29186 | 37842 ft | 473 kts | 296° |
| 2026-05-07 09:22 | 18.42453 | 69.23073 | 37839 ft | 473 kts | 298° |
| 2026-05-07 09:23 | 18.45633 | 69.17006 | 37843 ft | 473 kts | 298° |
| 2026-05-07 09:23 | 18.48785 | 69.10935 | 37842 ft | 473 kts | 298° |
| 2026-05-07 09:24 | 18.51914 | 69.04842 | 37848 ft | 473 kts | 298° |
| 2026-05-07 09:24 | 18.55031 | 68.98744 | 37845 ft | 473 kts | 298° |
| 2026-05-07 09:25 | 18.58145 | 68.92644 | 37844 ft | 473 kts | 298° |
| 2026-05-07 09:25 | 18.61265 | 68.86533 | 37842 ft | 473 kts | 298° |
| 2026-05-07 09:26 | 18.64377 | 68.80430 | 37846 ft | 473 kts | 298° |
| 2026-05-07 09:26 | 18.67485 | 68.74330 | 37849 ft | 473 kts | 298° |
| 2026-05-07 09:27 | 18.70577 | 68.68256 | 37830 ft | 473 kts | 298° |
| 2026-05-07 09:28 | 18.75237 | 68.59087 | 37832 ft | 473 kts | 298° |
| 2026-05-07 09:28 | 18.78343 | 68.52969 | 37850 ft | 472 kts | 297° |
| 2026-05-07 09:29 | 18.81443 | 68.46857 | 37853 ft | 472 kts | 297° |
| 2026-05-07 09:29 | 18.84544 | 68.40736 | 37851 ft | 472 kts | 297° |
| 2026-05-07 09:30 | 18.87642 | 68.34615 | 37834 ft | 472 kts | 297° |
| 2026-05-07 09:30 | 18.90739 | 68.28490 | 37855 ft | 472 kts | 297° |
| 2026-05-07 09:31 | 18.93811 | 68.22409 | 37843 ft | 472 kts | 297° |
| 2026-05-07 09:31 | 18.96906 | 68.16274 | 37852 ft | 472 kts | 297° |
| 2026-05-07 09:32 | 18.99989 | 68.10158 | 37851 ft | 472 kts | 297° |
| 2026-05-07 09:32 | 19.03072 | 68.04034 | 37832 ft | 472 kts | 297° |
| 2026-05-07 09:33 | 19.06159 | 67.97915 | 37853 ft | 471 kts | 298° |
| 2026-05-07 09:33 | 19.09293 | 67.91829 | 37853 ft | 472 kts | 298° |
| 2026-05-07 09:34 | 19.12447 | 67.85734 | 37835 ft | 472 kts | 298° |
| 2026-05-07 09:34 | 19.15562 | 67.79694 | 37853 ft | 471 kts | 298° |
| 2026-05-07 09:35 | 19.18702 | 67.73587 | 37850 ft | 471 kts | 298° |
| 2026-05-07 09:35 | 19.21831 | 67.67490 | 37849 ft | 471 kts | 298° |
| 2026-05-07 09:36 | 19.24955 | 67.61398 | 37850 ft | 471 kts | 298° |
| 2026-05-07 09:36 | 19.28084 | 67.55290 | 37832 ft | 471 kts | 298° |
| 2026-05-07 09:37 | 19.31208 | 67.49185 | 37851 ft | 471 kts | 298° |
| 2026-05-07 09:37 | 19.34327 | 67.43083 | 37847 ft | 471 kts | 298° |
| 2026-05-07 09:38 | 19.37425 | 67.37016 | 37856 ft | 471 kts | 298° |
| 2026-05-07 09:38 | 19.40540 | 67.30911 | 37854 ft | 471 kts | 298° |
| 2026-05-07 09:39 | 19.43652 | 67.24806 | 37835 ft | 471 kts | 298° |
| 2026-05-07 09:39 | 19.46759 | 67.18702 | 37843 ft | 471 kts | 297° |
| 2026-05-07 09:40 | 19.49867 | 67.12590 | 37857 ft | 470 kts | 297° |
| 2026-05-07 09:40 | 19.52972 | 67.06480 | 37859 ft | 470 kts | 297° |
| 2026-05-07 09:41 | 19.56075 | 67.00366 | 37854 ft | 470 kts | 297° |
| 2026-05-07 09:41 | 19.59170 | 66.94261 | 37841 ft | 470 kts | 297° |
| 2026-05-07 09:42 | 19.62248 | 66.88184 | 37846 ft | 470 kts | 297° |
| 2026-05-07 09:42 | 19.65340 | 66.82072 | 37844 ft | 470 kts | 297° |
| 2026-05-07 09:43 | 19.68432 | 66.75955 | 37858 ft | 470 kts | 297° |
| 2026-05-07 09:43 | 19.71522 | 66.69834 | 37857 ft | 470 kts | 297° |
| 2026-05-07 09:44 | 19.74610 | 66.63711 | 37856 ft | 470 kts | 297° |
| 2026-05-07 09:44 | 19.77703 | 66.57571 | 37842 ft | 470 kts | 297° |
| 2026-05-07 09:45 | 19.80767 | 66.51483 | 37838 ft | 470 kts | 297° |
| 2026-05-07 09:45 | 19.83851 | 66.45348 | 37841 ft | 470 kts | 297° |
| 2026-05-07 09:46 | 19.86931 | 66.39216 | 37853 ft | 470 kts | 297° |
| 2026-05-07 09:46 | 19.90005 | 66.33088 | 37853 ft | 470 kts | 297° |
| 2026-05-07 09:47 | 19.93078 | 66.26955 | 37841 ft | 470 kts | 297° |
| 2026-05-07 09:47 | 19.96144 | 66.20830 | 37840 ft | 470 kts | 297° |
| 2026-05-07 09:48 | 19.99212 | 66.14694 | 37840 ft | 469 kts | 297° |
| 2026-05-07 09:48 | 20.02276 | 66.08561 | 37856 ft | 469 kts | 297° |
| 2026-05-07 09:49 | 20.05334 | 66.02431 | 37859 ft | 469 kts | 297° |
| 2026-05-07 09:49 | 20.08391 | 65.96298 | 37841 ft | 469 kts | 297° |
| 2026-05-07 09:50 | 20.11442 | 65.90171 | 37841 ft | 469 kts | 297° |
| 2026-05-07 09:50 | 20.14472 | 65.84077 | 37840 ft | 469 kts | 297° |
| 2026-05-07 09:51 | 20.17523 | 65.77937 | 37841 ft | 469 kts | 297° |
| 2026-05-07 09:51 | 20.20567 | 65.71802 | 37860 ft | 469 kts | 297° |
| 2026-05-07 09:52 | 20.23615 | 65.65655 | 37844 ft | 469 kts | 297° |
| 2026-05-07 09:52 | 20.26656 | 65.59513 | 37844 ft | 469 kts | 297° |
| 2026-05-07 09:53 | 20.29695 | 65.53368 | 37840 ft | 469 kts | 297° |
| 2026-05-07 09:53 | 20.32731 | 65.47225 | 37861 ft | 469 kts | 297° |
| 2026-05-07 09:54 | 20.35766 | 65.41074 | 37844 ft | 469 kts | 297° |
| 2026-05-07 09:54 | 20.38797 | 65.34927 | 37845 ft | 469 kts | 297° |
| 2026-05-07 09:55 | 20.41815 | 65.28797 | 37844 ft | 469 kts | 297° |
| 2026-05-07 09:55 | 20.44844 | 65.22640 | 37845 ft | 469 kts | 297° |
| 2026-05-07 09:56 | 20.47871 | 65.16478 | 37844 ft | 469 kts | 297° |
| 2026-05-07 09:56 | 20.50894 | 65.10319 | 37846 ft | 468 kts | 297° |
| 2026-05-07 09:57 | 20.53916 | 65.04153 | 37850 ft | 468 kts | 297° |
| 2026-05-07 09:57 | 20.56922 | 64.98031 | 37848 ft | 468 kts | 297° |
| 2026-05-07 09:58 | 20.59982 | 64.91908 | 37849 ft | 468 kts | 298° |
| 2026-05-07 09:58 | 20.63055 | 64.85782 | 37848 ft | 468 kts | 298° |
| 2026-05-07 09:59 | 20.66125 | 64.79642 | 37845 ft | 468 kts | 298° |
| 2026-05-07 09:59 | 20.69179 | 64.73515 | 37846 ft | 467 kts | 298° |
| 2026-05-07 10:00 | 20.72234 | 64.67379 | 37843 ft | 467 kts | 297° |
| 2026-05-07 10:00 | 20.75283 | 64.61248 | 37845 ft | 467 kts | 297° |
| 2026-05-07 10:01 | 20.78329 | 64.55114 | 37844 ft | 467 kts | 297° |
| 2026-05-07 10:01 | 20.81352 | 64.49021 | 37834 ft | 467 kts | 297° |
| 2026-05-07 10:02 | 20.84390 | 64.42893 | 37841 ft | 467 kts | 297° |
| 2026-05-07 10:02 | 20.87427 | 64.36757 | 37839 ft | 467 kts | 297° |
| 2026-05-07 10:03 | 20.89967 | 64.31621 | 37844 ft | 467 kts | 297° |
| 2026-05-07 10:03 | 20.93496 | 64.24477 | 37842 ft | 467 kts | 297° |
| 2026-05-07 10:04 | 20.96014 | 64.19374 | 37843 ft | 467 kts | 297° |
| 2026-05-07 10:04 | 20.99043 | 64.13229 | 37840 ft | 467 kts | 297° |
| 2026-05-07 10:05 | 21.02069 | 64.07083 | 37844 ft | 467 kts | 297° |
| 2026-05-07 10:05 | 21.05093 | 64.00934 | 37844 ft | 467 kts | 297° |
| 2026-05-07 10:06 | 21.08115 | 63.94782 | 37838 ft | 467 kts | 297° |
| 2026-05-07 10:06 | 21.11138 | 63.88621 | 37843 ft | 467 kts | 297° |
| 2026-05-07 10:07 | 21.14157 | 63.82461 | 37841 ft | 467 kts | 297° |
| 2026-05-07 10:07 | 21.17155 | 63.76338 | 37844 ft | 467 kts | 297° |
| 2026-05-07 10:08 | 21.20169 | 63.70174 | 37840 ft | 467 kts | 297° |
| 2026-05-07 10:08 | 21.23182 | 63.64005 | 37839 ft | 467 kts | 297° |
| 2026-05-07 10:09 | 21.26190 | 63.57839 | 37842 ft | 467 kts | 297° |
| 2026-05-07 10:09 | 21.29201 | 63.51660 | 37838 ft | 467 kts | 297° |
| 2026-05-07 10:10 | 21.32189 | 63.45522 | 37838 ft | 467 kts | 297° |
| 2026-05-07 10:10 | 21.35190 | 63.39349 | 37839 ft | 467 kts | 297° |
| 2026-05-07 10:11 | 21.38188 | 63.33177 | 37840 ft | 467 kts | 297° |
| 2026-05-07 10:11 | 21.41185 | 63.26997 | 37836 ft | 467 kts | 297° |
| 2026-05-07 10:12 | 21.44185 | 63.20805 | 37836 ft | 467 kts | 297° |
| 2026-05-07 10:12 | 21.47180 | 63.14617 | 37837 ft | 467 kts | 297° |
| 2026-05-07 10:13 | 21.50171 | 63.08427 | 37834 ft | 467 kts | 297° |
| 2026-05-07 10:13 | 21.53158 | 63.02241 | 37833 ft | 467 kts | 297° |
| 2026-05-07 10:14 | 21.56147 | 62.96044 | 37839 ft | 467 kts | 297° |
| 2026-05-07 10:14 | 21.59126 | 62.89858 | 37835 ft | 467 kts | 297° |
| 2026-05-07 10:15 | 21.62089 | 62.83698 | 37832 ft | 467 kts | 297° |
| 2026-05-07 10:15 | 21.65073 | 62.77489 | 37834 ft | 467 kts | 297° |
| 2026-05-07 10:16 | 21.68054 | 62.71277 | 37831 ft | 467 kts | 296° |
| 2026-05-07 10:16 | 21.71026 | 62.65077 | 37831 ft | 467 kts | 296° |
| 2026-05-07 10:17 | 21.74000 | 62.58866 | 37829 ft | 467 kts | 296° |
| 2026-05-07 10:17 | 21.76952 | 62.52692 | 37833 ft | 467 kts | 296° |
| 2026-05-07 10:18 | 21.79918 | 62.46481 | 37828 ft | 467 kts | 296° |
| 2026-05-07 10:18 | 21.82886 | 62.40261 | 37826 ft | 467 kts | 296° |
| 2026-05-07 10:19 | 21.85726 | 62.33978 | 37825 ft | 467 kts | 294° |
| 2026-05-07 10:19 | 21.88360 | 62.27587 | 37822 ft | 467 kts | 293° |
| 2026-05-07 10:20 | 21.90958 | 62.21220 | 37827 ft | 467 kts | 293° |
| 2026-05-07 10:20 | 21.93585 | 62.14821 | 37824 ft | 467 kts | 293° |
| 2026-05-07 10:21 | 21.96222 | 62.08422 | 37821 ft | 467 kts | 293° |
| 2026-05-07 10:21 | 21.98859 | 62.02022 | 37822 ft | 467 kts | 293° |
| 2026-05-07 10:22 | 22.01493 | 61.95623 | 37821 ft | 467 kts | 293° |
| 2026-05-07 10:22 | 22.04124 | 61.89218 | 37825 ft | 467 kts | 293° |
| 2026-05-07 10:23 | 22.06746 | 61.82829 | 37818 ft | 466 kts | 293° |
| 2026-05-07 10:23 | 22.09364 | 61.76437 | 37817 ft | 466 kts | 293° |
| 2026-05-07 10:24 | 22.11976 | 61.70057 | 37818 ft | 465 kts | 293° |
| 2026-05-07 10:24 | 22.14585 | 61.63671 | 37819 ft | 465 kts | 293° |
| 2026-05-07 10:25 | 22.17176 | 61.57323 | 37814 ft | 465 kts | 293° |
| 2026-05-07 10:25 | 22.19777 | 61.50940 | 37814 ft | 465 kts | 293° |
| 2026-05-07 10:26 | 22.22386 | 61.44531 | 37813 ft | 465 kts | 293° |
| 2026-05-07 10:26 | 22.24986 | 61.38133 | 37814 ft | 466 kts | 293° |
| 2026-05-07 10:27 | 22.27593 | 61.31713 | 37813 ft | 466 kts | 293° |
| 2026-05-07 10:27 | 22.30179 | 61.25334 | 37807 ft | 466 kts | 293° |
| 2026-05-07 10:28 | 22.32778 | 61.18914 | 37809 ft | 467 kts | 293° |
| 2026-05-07 10:28 | 22.35375 | 61.12490 | 37812 ft | 467 kts | 293° |
| 2026-05-07 10:29 | 22.37972 | 61.06058 | 37810 ft | 467 kts | 293° |
| 2026-05-07 10:29 | 22.40564 | 60.99632 | 37808 ft | 466 kts | 293° |
| 2026-05-07 10:30 | 22.44442 | 60.89997 | 37802 ft | 466 kts | 292° |
| 2026-05-07 10:30 | 22.47027 | 60.83565 | 37803 ft | 466 kts | 292° |
| 2026-05-07 10:31 | 22.49601 | 60.77150 | 37803 ft | 465 kts | 292° |
| 2026-05-07 10:31 | 22.52178 | 60.70718 | 37800 ft | 465 kts | 292° |
| 2026-05-07 10:32 | 22.54746 | 60.64300 | 37801 ft | 465 kts | 292° |
| 2026-05-07 10:32 | 22.57297 | 60.57919 | 37802 ft | 465 kts | 292° |
| 2026-05-07 10:33 | 22.59861 | 60.51496 | 37803 ft | 465 kts | 292° |
| 2026-05-07 10:33 | 22.62428 | 60.45072 | 37803 ft | 464 kts | 292° |
| 2026-05-07 10:34 | 22.64988 | 60.38654 | 37798 ft | 464 kts | 292° |
| 2026-05-07 10:34 | 22.67549 | 60.32223 | 37799 ft | 464 kts | 292° |
| 2026-05-07 10:35 | 22.70088 | 60.25839 | 37792 ft | 464 kts | 292° |
| 2026-05-07 10:35 | 22.72635 | 60.19424 | 37799 ft | 464 kts | 292° |
| 2026-05-07 10:36 | 22.75185 | 60.12993 | 37797 ft | 464 kts | 292° |
| 2026-05-07 10:36 | 22.77729 | 60.06569 | 37790 ft | 464 kts | 292° |
| 2026-05-07 10:37 | 22.80271 | 60.00141 | 37792 ft | 464 kts | 292° |
| 2026-05-07 10:37 | 22.82805 | 59.93723 | 37797 ft | 463 kts | 292° |
| 2026-05-07 10:38 | 22.85340 | 59.87295 | 37796 ft | 463 kts | 292° |
| 2026-05-07 10:38 | 22.87870 | 59.80864 | 37791 ft | 463 kts | 292° |
| 2026-05-07 10:39 | 22.90395 | 59.74433 | 37790 ft | 463 kts | 292° |
| 2026-05-07 10:39 | 22.92917 | 59.67998 | 37789 ft | 463 kts | 292° |
| 2026-05-07 10:40 | 22.95436 | 59.61562 | 37792 ft | 463 kts | 292° |
| 2026-05-07 10:40 | 22.97951 | 59.55128 | 37796 ft | 463 kts | 292° |
| 2026-05-07 10:41 | 23.00465 | 59.48687 | 37796 ft | 463 kts | 292° |
| 2026-05-07 10:41 | 23.02976 | 59.42246 | 37799 ft | 463 kts | 292° |
| 2026-05-07 10:42 | 23.05482 | 59.35807 | 37806 ft | 463 kts | 291° |
| 2026-05-07 10:42 | 23.07956 | 59.29404 | 37805 ft | 463 kts | 291° |
| 2026-05-07 10:43 | 23.10443 | 59.22950 | 37807 ft | 463 kts | 291° |
| 2026-05-07 10:43 | 23.12928 | 59.16496 | 37809 ft | 462 kts | 291° |
| 2026-05-07 10:44 | 23.15405 | 59.10056 | 37807 ft | 462 kts | 291° |
| 2026-05-07 10:44 | 23.17783 | 59.03559 | 37808 ft | 461 kts | 287° |
| 2026-05-07 10:45 | 23.19469 | 58.96838 | 37820 ft | 461 kts | 284° |
| 2026-05-07 10:45 | 23.21070 | 58.90083 | 37817 ft | 461 kts | 284° |
| 2026-05-07 10:46 | 23.22689 | 58.83335 | 37812 ft | 461 kts | 284° |
| 2026-05-07 10:46 | 23.24326 | 58.76578 | 37813 ft | 461 kts | 284° |
| 2026-05-07 10:47 | 23.25954 | 58.69873 | 37819 ft | 461 kts | 284° |
| 2026-05-07 10:47 | 23.27589 | 58.63116 | 37818 ft | 461 kts | 284° |
| 2026-05-07 10:48 | 23.29218 | 58.56368 | 37818 ft | 462 kts | 284° |
| 2026-05-07 10:48 | 23.30847 | 58.49611 | 37818 ft | 462 kts | 284° |
| 2026-05-07 10:49 | 23.32472 | 58.42853 | 37811 ft | 461 kts | 284° |
| 2026-05-07 10:49 | 23.34091 | 58.36103 | 37803 ft | 461 kts | 284° |
| 2026-05-07 10:50 | 23.35708 | 58.29352 | 37793 ft | 461 kts | 284° |
| 2026-05-07 10:50 | 23.37049 | 58.23742 | 37807 ft | 461 kts | 284° |
| 2026-05-07 10:51 | 23.38684 | 58.16989 | 37801 ft | 462 kts | 286° |
| 2026-05-07 10:51 | 23.41179 | 58.10545 | 37809 ft | 463 kts | 296° |
| 2026-05-07 10:52 | 23.44635 | 58.04618 | 37810 ft | 464 kts | 304° |
| 2026-05-07 10:52 | 23.48436 | 57.98929 | 37810 ft | 464 kts | 304° |
| 2026-05-07 10:53 | 23.52208 | 57.93225 | 37821 ft | 463 kts | 303° |
| 2026-05-07 10:53 | 23.55919 | 57.87534 | 37824 ft | 463 kts | 303° |
| 2026-05-07 10:54 | 23.59655 | 57.81810 | 37819 ft | 463 kts | 304° |
| 2026-05-07 10:54 | 23.63599 | 57.76252 | 37818 ft | 464 kts | 307° |
| 2026-05-07 10:55 | 23.67615 | 57.70740 | 37816 ft | 464 kts | 306° |
| 2026-05-07 10:55 | 23.71598 | 57.65186 | 37810 ft | 464 kts | 306° |
| 2026-05-07 10:56 | 23.75555 | 57.59631 | 37810 ft | 464 kts | 306° |
| 2026-05-07 10:56 | 23.79516 | 57.54076 | 37808 ft | 463 kts | 306° |
| 2026-05-07 10:57 | 23.83480 | 57.48516 | 37804 ft | 463 kts | 306° |
| 2026-05-07 10:57 | 23.87428 | 57.42972 | 37801 ft | 463 kts | 306° |
| 2026-05-07 10:58 | 23.91384 | 57.37410 | 37803 ft | 462 kts | 306° |
| 2026-05-07 10:58 | 23.95303 | 57.31891 | 37795 ft | 462 kts | 305° |
| 2026-05-07 10:59 | 23.97274 | 57.29114 | 37476 ft | 466 kts | 305° |
| 2026-05-07 10:59 | 23.99267 | 57.26302 | 36872 ft | 468 kts | 305° |
| 2026-05-07 10:59 | 24.01258 | 57.23494 | 36171 ft | 466 kts | 305° |
| 2026-05-07 10:59 | 24.03242 | 57.20694 | 35551 ft | 464 kts | 305° |
| 2026-05-07 11:00 | 24.05213 | 57.17912 | 35009 ft | 460 kts | 305° |
| 2026-05-07 11:00 | 24.07161 | 57.15160 | 34466 ft | 457 kts | 305° |
| 2026-05-07 11:00 | 24.09103 | 57.12414 | 33913 ft | 455 kts | 305° |
| 2026-05-07 11:00 | 24.11025 | 57.09694 | 33298 ft | 452 kts | 305° |
| 2026-05-07 11:01 | 24.12948 | 57.06971 | 32745 ft | 449 kts | 305° |
| 2026-05-07 11:01 | 24.14857 | 57.04267 | 32197 ft | 445 kts | 305° |
| 2026-05-07 11:01 | 24.16739 | 57.01600 | 31683 ft | 442 kts | 305° |
| 2026-05-07 11:01 | 24.18615 | 56.98939 | 31159 ft | 439 kts | 305° |
| 2026-05-07 11:02 | 24.20475 | 56.96300 | 30634 ft | 436 kts | 305° |
| 2026-05-07 11:02 | 24.22304 | 56.93704 | 30107 ft | 434 kts | 305° |
| 2026-05-07 11:02 | 24.24168 | 56.91051 | 29517 ft | 432 kts | 305° |
| 2026-05-07 11:02 | 24.25995 | 56.88445 | 28935 ft | 429 kts | 305° |
| 2026-05-07 11:03 | 24.27775 | 56.85905 | 28518 ft | 423 kts | 306° |
| 2026-05-07 11:03 | 24.29555 | 56.83363 | 28088 ft | 417 kts | 306° |
| 2026-05-07 11:03 | 24.31309 | 56.80857 | 27612 ft | 413 kts | 306° |
| 2026-05-07 11:03 | 24.33054 | 56.78363 | 27073 ft | 411 kts | 306° |
| 2026-05-07 11:04 | 24.34789 | 56.75880 | 26536 ft | 409 kts | 306° |
| 2026-05-07 11:04 | 24.36513 | 56.73412 | 26052 ft | 407 kts | 306° |
| 2026-05-07 11:04 | 24.38231 | 56.70951 | 25579 ft | 404 kts | 306° |
| 2026-05-07 11:04 | 24.39937 | 56.68510 | 25125 ft | 402 kts | 306° |
| 2026-05-07 11:05 | 24.41631 | 56.66082 | 24677 ft | 400 kts | 306° |
| 2026-05-07 11:05 | 24.43317 | 56.63666 | 24233 ft | 398 kts | 307° |
| 2026-05-07 11:05 | 24.44982 | 56.61247 | 23785 ft | 395 kts | 306° |
| 2026-05-07 11:05 | 24.46613 | 56.58835 | 23381 ft | 393 kts | 306° |
| 2026-05-07 11:06 | 24.48231 | 56.56428 | 22907 ft | 390 kts | 306° |
| 2026-05-07 11:06 | 24.49836 | 56.54035 | 22451 ft | 387 kts | 306° |
| 2026-05-07 11:06 | 24.51428 | 56.51663 | 21988 ft | 385 kts | 306° |
| 2026-05-07 11:06 | 24.53015 | 56.49300 | 21523 ft | 383 kts | 306° |
| 2026-05-07 11:07 | 24.54594 | 56.46949 | 21039 ft | 381 kts | 306° |
| 2026-05-07 11:07 | 24.56147 | 56.44637 | 20594 ft | 380 kts | 306° |
| 2026-05-07 11:07 | 24.57713 | 56.42306 | 20143 ft | 378 kts | 306° |
| 2026-05-07 11:07 | 24.59277 | 56.39979 | 19696 ft | 377 kts | 306° |
| 2026-05-07 11:08 | 24.60823 | 56.37677 | 19263 ft | 375 kts | 306° |
| 2026-05-07 11:08 | 24.62371 | 56.35371 | 18830 ft | 374 kts | 306° |
| 2026-05-07 11:08 | 24.63915 | 56.33070 | 18386 ft | 373 kts | 307° |
| 2026-05-07 11:08 | 24.65455 | 56.30773 | 17913 ft | 372 kts | 307° |
| 2026-05-07 11:09 | 24.66989 | 56.28485 | 17412 ft | 372 kts | 307° |
| 2026-05-07 11:09 | 24.68524 | 56.26195 | 16914 ft | 371 kts | 307° |
| 2026-05-07 11:09 | 24.70053 | 56.23911 | 16421 ft | 371 kts | 307° |
| 2026-05-07 11:09 | 24.71577 | 56.21636 | 15934 ft | 370 kts | 307° |
| 2026-05-07 11:10 | 24.73101 | 56.19358 | 15456 ft | 370 kts | 306° |
| 2026-05-07 11:10 | 24.74626 | 56.17076 | 15020 ft | 368 kts | 306° |
| 2026-05-07 11:10 | 24.76138 | 56.14814 | 14594 ft | 367 kts | 306° |
| 2026-05-07 11:10 | 24.77629 | 56.12583 | 14182 ft | 365 kts | 306° |
| 2026-05-07 11:11 | 24.79129 | 56.10336 | 13769 ft | 363 kts | 306° |
| 2026-05-07 11:11 | 24.80622 | 56.08100 | 13342 ft | 362 kts | 306° |
| 2026-05-07 11:11 | 24.82109 | 56.05873 | 12889 ft | 360 kts | 306° |
| 2026-05-07 11:11 | 24.83591 | 56.03651 | 12451 ft | 359 kts | 306° |
| 2026-05-07 11:12 | 24.85065 | 56.01439 | 12006 ft | 357 kts | 306° |
| 2026-05-07 11:12 | 24.86528 | 55.99243 | 11585 ft | 355 kts | 306° |
| 2026-05-07 11:12 | 24.87985 | 55.97055 | 11198 ft | 353 kts | 306° |
| 2026-05-07 11:12 | 24.89431 | 55.94886 | 10814 ft | 350 kts | 306° |
| 2026-05-07 11:13 | 24.90864 | 55.92733 | 10449 ft | 347 kts | 305° |
| 2026-05-07 11:13 | 24.92282 | 55.90600 | 10144 ft | 341 kts | 305° |
| 2026-05-07 11:13 | 24.93654 | 55.88536 | 10099 ft | 327 kts | 305° |
| 2026-05-07 11:13 | 24.94968 | 55.86559 | 10051 ft | 314 kts | 305° |
| 2026-05-07 11:14 | 24.96239 | 55.84645 | 9989 ft | 304 kts | 305° |
| 2026-05-07 11:14 | 24.97501 | 55.82743 | 9723 ft | 311 kts | 305° |
| 2026-05-07 11:14 | 24.98751 | 55.80861 | 9317 ft | 297 kts | 305° |
| 2026-05-07 11:14 | 24.99944 | 55.79063 | 8928 ft | 280 kts | 305° |
| 2026-05-07 11:15 | 25.01043 | 55.77406 | 8545 ft | 266 kts | 305° |
| 2026-05-07 11:15 | 25.02133 | 55.75761 | 8209 ft | 267 kts | 305° |
| 2026-05-07 11:15 | 25.03222 | 55.74116 | 7888 ft | 261 kts | 305° |
| 2026-05-07 11:15 | 25.04267 | 55.72538 | 7507 ft | 250 kts | 306° |
| 2026-05-07 11:16 | 25.05290 | 55.70993 | 7040 ft | 249 kts | 306° |
| 2026-05-07 11:16 | 25.06308 | 55.69456 | 6597 ft | 248 kts | 306° |
| 2026-05-07 11:16 | 25.07320 | 55.67927 | 6145 ft | 246 kts | 306° |
| 2026-05-07 11:16 | 25.08316 | 55.66421 | 5667 ft | 244 kts | 305° |
| 2026-05-07 11:17 | 25.09316 | 55.64911 | 5197 ft | 242 kts | 304° |
| 2026-05-07 11:17 | 25.10297 | 55.63417 | 4733 ft | 239 kts | 302° |
| 2026-05-07 11:17 | 25.11191 | 55.61887 | 4253 ft | 236 kts | 299° |
| 2026-05-07 11:17 | 25.12047 | 55.60353 | 3912 ft | 235 kts | 298° |
| 2026-05-07 11:18 | 25.12899 | 55.58810 | 3621 ft | 236 kts | 299° |
| 2026-05-07 11:18 | 25.13747 | 55.57279 | 3521 ft | 228 kts | 299° |
| 2026-05-07 11:18 | 25.14576 | 55.55776 | 3202 ft | 229 kts | 298° |
| 2026-05-07 11:18 | 25.15374 | 55.54339 | 2928 ft | 209 kts | 298° |
| 2026-05-07 11:19 | 25.16092 | 55.53049 | 2729 ft | 188 kts | 297° |
| 2026-05-07 11:19 | 25.16753 | 55.51851 | 2478 ft | 178 kts | 296° |
| 2026-05-07 11:19 | 25.17368 | 55.50736 | 2231 ft | 168 kts | 297° |
| 2026-05-07 11:19 | 25.17979 | 55.49630 | 2013 ft | 165 kts | 297° |
| 2026-05-07 11:20 | 25.18557 | 55.48590 | 1810 ft | 151 kts | 296° |
| 2026-05-07 11:20 | 25.19071 | 55.47660 | 1653 ft | 137 kts | 296° |
| 2026-05-07 11:20 | 25.19566 | 55.46762 | 1486 ft | 137 kts | 296° |
| 2026-05-07 11:20 | 25.20065 | 55.45859 | 1322 ft | 137 kts | 295° |
| 2026-05-07 11:21 | 25.20560 | 55.44958 | 1172 ft | 138 kts | 296° |
| 2026-05-07 11:21 | 25.21062 | 55.44037 | 962 ft | 140 kts | 296° |
| 2026-05-07 11:21 | 25.21576 | 55.43116 | 774 ft | 141 kts | 298° |
| 2026-05-07 11:21 | 25.22080 | 55.42220 | 613 ft | 137 kts | 297° |
| 2026-05-07 11:22 | 25.22589 | 55.41309 | 451 ft | 140 kts | 296° |
| 2026-05-07 11:22 | 25.23114 | 55.40358 | 255 ft | 148 kts | 296° |
| 2026-05-07 11:22 | 25.23643 | 55.39395 | 62 ft | 146 kts | 299° |
| 2026-05-07 11:22 | 25.24140 | 55.38497 | 36 ft | 124 kts | 301° |
| 2026-05-07 11:23 | 25.24512 | 55.37827 | 34 ft | 80 kts | 301° |
| 2026-05-07 11:23 | 25.24720 | 55.37453 | 33 ft | 45 kts | 300° |
| 2026-05-07 11:23 | 25.24781 | 55.37247 | 34 ft | 18 kts | 278° |
| 2026-05-07 11:23 | 25.24787 | 55.37110 | 31 ft | 18 kts | 272° |
| 2026-05-07 11:24 | 25.24803 | 55.36967 | 28 ft | 19 kts | 290° |
| 2026-05-07 11:24 | 25.24853 | 55.36832 | 28 ft | 19 kts | 287° |
| 2026-05-07 11:24 | 25.24880 | 55.36719 | 27 ft | 9 kts | 288° |
| 2026-05-07 11:24 | 25.24899 | 55.36665 | 27 ft | 7 kts | 295° |
| 2026-05-07 11:25 | 25.24915 | 55.36612 | 27 ft | 8 kts | 263° |
| 2026-05-07 11:25 | 25.24878 | 55.36566 | 27 ft | 9 kts | 209° |
| 2026-05-07 11:25 | 25.24823 | 55.36531 | 26 ft | 8 kts | 211° |
| 2026-05-07 11:25 | 25.24789 | 55.36508 | 26 ft | 4 kts | 211° |
| 2026-05-07 11:26 | 25.24775 | 55.36499 | 31 ft | 1 kts | 211° |
| 2026-05-07 11:26 | 25.24771 | 55.36497 | 31 ft | 0 kts | 211° |